createdAt,value
2023-03-21T00:00:30.854Z,13.82
2023-03-21T00:02:58.104Z,11.45
2023-03-21T00:05:25.280Z,13.75
2023-03-21T00:07:52.851Z,10.80
2023-03-21T00:10:33.095Z,9.02
2023-03-21T00:13:06.433Z,14.27
2023-03-21T00:15:44.136Z,11.65
2023-03-21T00:18:18.958Z,15.30
2023-03-21T00:21:12.674Z,10.02
2023-03-21T00:23:45.014Z,8.82
2023-03-21T00:26:12.712Z,10.75
2023-03-21T00:28:44.090Z,9.43
2023-03-21T00:31:11.459Z,11.27
2023-03-21T00:33:46.450Z,12.33
2023-03-21T00:36:25.878Z,8.77
2023-03-21T00:38:54.204Z,11.60
2023-03-21T00:41:35.003Z,10.90
2023-03-21T00:44:08.186Z,12.60
2023-03-21T00:46:45.586Z,11.00
2023-03-21T00:49:16.628Z,11.48
2023-03-21T00:51:44.579Z,10.95
2023-03-21T00:54:13.066Z,11.55
2023-03-21T00:56:40.235Z,12.20
2023-03-21T00:59:07.238Z,9.40
2023-03-21T01:01:34.678Z,11.57
2023-03-21T01:04:13.642Z,10.63
2023-03-21T01:06:43.720Z,9.47
2023-03-21T01:09:22.002Z,11.43
2023-03-21T01:11:50.587Z,11.32
2023-03-21T01:14:23.324Z,11.85
2023-03-21T01:16:54.213Z,10.70
2023-03-21T01:19:50.722Z,14.57
2023-03-21T01:22:16.547Z,9.82
2023-03-21T01:24:52.935Z,12.68
2023-03-21T01:27:22.492Z,13.50
2023-03-21T01:29:49.505Z,12.60
2023-03-21T01:32:16.800Z,14.48
2023-03-21T01:34:43.815Z,8.38
2023-03-21T01:37:10.861Z,10.33
2023-03-21T01:39:37.979Z,12.95
2023-03-21T01:42:05.179Z,8.47
2023-03-21T01:44:32.412Z,9.43
2023-03-21T01:47:15.430Z,16.08
2023-03-21T01:49:47.932Z,10.43
2023-03-21T01:52:35.470Z,9.83
2023-03-21T01:55:11.763Z,10.87
2023-03-21T01:58:02.105Z,9.18
2023-03-21T02:00:32.808Z,11.48
2023-03-21T02:03:12.522Z,12.18
2023-03-21T02:06:09.804Z,11.80
2023-03-21T02:08:39.848Z,11.07
2023-03-21T02:11:10.196Z,11.57
2023-03-21T02:13:37.694Z,9.48
2023-03-21T02:16:44.713Z,12.57
2023-03-21T02:19:32.873Z,8.23
2023-03-21T02:22:32.529Z,12.52
2023-03-21T02:25:47.875Z,11.48
2023-03-21T02:28:45.265Z,8.88
2023-03-21T02:31:28.577Z,8.15
2023-03-21T02:34:17.003Z,12.20
2023-03-21T02:37:03.000Z,12.25
2023-03-21T02:40:12.476Z,12.75
2023-03-21T02:43:22.940Z,13.00
2023-03-21T02:46:19.332Z,10.10
2023-03-21T02:48:59.047Z,11.55
2023-03-21T02:51:29.090Z,11.48
2023-03-21T02:54:26.418Z,11.38
2023-03-21T02:56:56.119Z,13.73
2023-03-21T02:59:25.382Z,11.10
2023-03-21T03:01:53.663Z,11.18
2023-03-21T03:04:28.626Z,15.77
2023-03-21T03:06:58.737Z,9.48
2023-03-21T03:10:03.743Z,11.00
2023-03-21T03:12:56.512Z,9.60
2023-03-21T03:15:35.861Z,14.10
2023-03-21T03:18:29.504Z,14.70
2023-03-21T03:21:08.564Z,14.10
2023-03-21T03:23:50.807Z,18.53
2023-03-21T03:26:44.676Z,13.27
2023-03-21T03:29:17.514Z,12.68
2023-03-21T03:32:00.099Z,16.80
2023-03-21T03:34:39.548Z,14.60
2023-03-21T03:37:11.674Z,15.80
2023-03-21T03:40:10.958Z,17.17
2023-03-21T03:42:53.616Z,16.23
2023-03-21T03:45:26.570Z,13.60
2023-03-21T03:48:25.764Z,16.47
2023-03-21T03:51:02.879Z,12.68
2023-03-21T03:53:39.335Z,13.63
2023-03-21T03:56:11.600Z,17.55
2023-03-21T03:58:45.626Z,13.47
2023-03-21T04:01:14.143Z,13.63
2023-03-21T04:03:50.647Z,12.67
2023-03-21T04:06:22.202Z,12.67
2023-03-21T04:08:51.037Z,14.00
2023-03-21T04:11:21.288Z,14.32
2023-03-21T04:13:48.654Z,14.00
2023-03-21T04:16:15.922Z,18.77
2023-03-21T04:18:43.058Z,14.60
2023-03-21T04:21:15.558Z,16.67
2023-03-21T04:23:42.911Z,16.70
2023-03-21T04:26:11.380Z,15.10
2023-03-21T04:28:39.814Z,14.40
2023-03-21T04:31:24.079Z,22.70
2023-03-21T04:33:52.078Z,14.50
2023-03-21T04:36:30.701Z,14.30
2023-03-21T04:39:01.666Z,14.63
2023-03-21T04:41:29.715Z,13.63
2023-03-21T04:43:56.845Z,14.80
2023-03-21T04:46:24.685Z,14.40
2023-03-21T04:48:51.749Z,14.07
2023-03-21T04:51:18.931Z,14.13
2023-03-21T04:53:49.244Z,15.52
2023-03-21T04:56:16.729Z,11.75
2023-03-21T04:58:44.129Z,13.30
2023-03-21T05:01:14.709Z,17.03
2023-03-21T05:03:42.892Z,10.30
2023-03-21T05:06:10.854Z,14.70
2023-03-21T05:08:37.992Z,12.87
2023-03-21T05:11:06.048Z,14.82
2023-03-21T05:13:33.225Z,11.73
2023-03-21T05:16:00.392Z,11.57
2023-03-21T05:18:27.404Z,11.70
2023-03-21T05:20:55.378Z,15.18
2023-03-21T05:23:23.991Z,12.70
2023-03-21T05:25:51.631Z,10.88
2023-03-21T05:28:18.731Z,12.90
2023-03-21T05:30:47.131Z,11.53
2023-03-21T05:33:14.527Z,10.93
2023-03-21T05:35:41.671Z,10.50
2023-03-21T05:38:09.277Z,15.17
2023-03-21T05:40:36.368Z,10.70
2023-03-21T05:43:03.473Z,14.17
2023-03-21T05:45:31.014Z,13.60
2023-03-21T05:47:58.111Z,13.65
2023-03-21T05:50:25.478Z,12.98
2023-03-21T05:52:52.708Z,10.37
2023-03-21T05:55:22.420Z,16.77
2023-03-21T05:57:50.055Z,11.68
2023-03-21T06:00:18.197Z,14.52
2023-03-21T06:02:45.894Z,14.70
2023-03-21T06:05:12.996Z,13.13
2023-03-21T06:07:40.260Z,10.27
2023-03-21T06:10:08.469Z,13.18
2023-03-21T06:12:35.607Z,13.90
2023-03-21T06:15:05.548Z,14.25
2023-03-21T06:17:33.059Z,14.25
2023-03-21T06:20:01.210Z,7.43
2023-03-21T06:22:29.022Z,9.88
2023-03-21T06:24:55.993Z,8.37
2023-03-21T06:27:23.541Z,11.77
2023-03-21T06:29:50.591Z,9.73
2023-03-21T06:32:17.933Z,10.77
2023-03-21T06:34:45.200Z,9.43
2023-03-21T06:37:12.230Z,7.35
2023-03-21T06:39:39.380Z,6.57
2023-03-21T06:42:06.672Z,7.15
2023-03-21T06:44:33.764Z,10.75
2023-03-21T06:47:01.369Z,10.38
2023-03-21T06:49:28.502Z,11.93
2023-03-21T06:51:55.773Z,9.80
2023-03-21T06:54:22.850Z,8.20
2023-03-21T06:56:50.281Z,16.08
2023-03-21T06:59:17.770Z,11.05
2023-03-21T07:01:44.750Z,9.68
2023-03-21T07:04:12.301Z,10.93
2023-03-21T07:06:39.456Z,7.47
2023-03-21T07:09:07.207Z,8.70
2023-03-21T07:11:37.162Z,8.18
2023-03-21T07:14:05.480Z,12.68
2023-03-21T07:16:32.567Z,11.15
2023-03-21T07:18:59.874Z,9.23
2023-03-21T07:21:27.015Z,8.15
2023-03-21T07:23:54.053Z,9.02
2023-03-21T07:26:21.166Z,9.85
2023-03-21T07:28:48.308Z,11.88
2023-03-21T07:31:17.737Z,10.07
2023-03-21T07:33:44.928Z,11.98
2023-03-21T07:36:16.415Z,11.48
2023-03-21T07:38:45.442Z,9.18
2023-03-21T07:41:13.660Z,13.55
2023-03-21T07:43:40.916Z,15.02
2023-03-21T07:46:08.470Z,11.82
2023-03-21T07:48:35.718Z,13.00
2023-03-21T07:51:02.867Z,11.23
2023-03-21T07:53:30.181Z,9.90
2023-03-21T07:55:57.379Z,10.15
2023-03-21T07:58:26.365Z,12.90
2023-03-21T08:00:55.799Z,10.60
2023-03-21T08:03:24.050Z,11.50
2023-03-21T08:05:51.483Z,15.32
2023-03-21T08:08:18.612Z,13.35
2023-03-21T08:10:45.915Z,9.32
2023-03-21T08:13:13.897Z,13.00
2023-03-21T08:15:42.562Z,11.48
2023-03-21T08:18:11.542Z,11.38
2023-03-21T08:20:38.838Z,10.05
2023-03-21T08:23:06.056Z,11.30
2023-03-21T08:25:33.331Z,9.68
2023-03-21T08:28:00.929Z,8.80
2023-03-21T08:30:29.763Z,10.73
2023-03-21T08:33:01.139Z,10.65
2023-03-21T08:35:29.513Z,9.10
2023-03-21T08:37:57.357Z,11.15
2023-03-21T08:40:24.627Z,11.70
2023-03-21T08:42:54.928Z,11.52
2023-03-21T08:45:22.984Z,11.75
2023-03-21T08:47:50.352Z,56.13
2023-03-21T08:50:21.496Z,15.52
2023-03-21T08:52:49.375Z,15.18
2023-03-21T08:55:18.162Z,11.60
2023-03-21T08:57:45.926Z,10.45
2023-03-21T09:00:18.491Z,11.88
2023-03-21T09:02:48.674Z,13.48
2023-03-21T09:05:16.971Z,11.25
2023-03-21T09:07:45.772Z,9.77
2023-03-21T09:10:23.141Z,10.32
2023-03-21T09:12:52.977Z,10.95
2023-03-21T09:15:22.140Z,11.20
2023-03-21T09:17:52.956Z,10.48
2023-03-21T09:20:26.521Z,9.32
2023-03-21T09:22:54.349Z,11.10
2023-03-21T09:25:21.637Z,13.07
2023-03-21T09:27:49.178Z,12.18
2023-03-21T09:30:19.834Z,11.05
2023-03-21T09:32:49.526Z,11.27
2023-03-21T09:35:18.931Z,8.15
2023-03-21T09:37:50.139Z,9.25
2023-03-21T09:40:30.770Z,9.13
2023-03-21T09:43:10.807Z,10.05
2023-03-21T09:46:04.195Z,10.05
2023-03-21T09:48:57.734Z,6.05
2023-03-21T09:51:31.628Z,6.95
2023-03-21T09:54:03.982Z,7.47
2023-03-21T09:56:31.233Z,12.77
2023-03-21T09:59:00.723Z,9.13
2023-03-21T10:01:34.425Z,8.95
2023-03-21T10:04:12.904Z,10.25
2023-03-21T10:06:43.027Z,10.27
2023-03-21T10:09:24.501Z,8.43
2023-03-21T10:12:02.419Z,6.65
2023-03-21T10:14:42.302Z,12.35
2023-03-21T10:17:43.756Z,7.63
2023-03-21T10:20:11.995Z,8.68
2023-03-21T10:22:39.926Z,8.60
2023-03-21T10:25:11.090Z,10.40
2023-03-21T10:27:38.466Z,8.88
2023-03-21T10:30:08.741Z,6.70
2023-03-21T10:32:35.943Z,9.70
2023-03-21T10:35:05.080Z,8.38
2023-03-21T10:37:32.672Z,7.70
2023-03-21T10:39:59.889Z,5.82
2023-03-21T10:42:31.527Z,6.72
2023-03-21T10:44:59.025Z,8.32
2023-03-21T10:47:33.951Z,5.05
2023-03-21T10:50:13.875Z,8.77
2023-03-21T10:52:56.098Z,9.18
2023-03-21T10:55:34.398Z,4.68
2023-03-21T10:58:19.065Z,8.57
2023-03-21T11:00:47.855Z,7.65
2023-03-21T11:03:44.944Z,6.75
2023-03-21T11:06:23.325Z,7.63
2023-03-21T11:09:13.938Z,7.05
2023-03-21T11:11:54.948Z,4.95
2023-03-21T11:14:51.159Z,5.05
2023-03-21T11:17:18.120Z,5.00
2023-03-21T11:19:58.468Z,4.22
2023-03-21T11:22:30.925Z,4.43
2023-03-21T11:25:01.789Z,9.68
2023-03-21T11:27:30.295Z,7.82
2023-03-21T11:30:01.005Z,4.85
2023-03-21T11:32:36.250Z,7.20
2023-03-21T11:35:09.419Z,8.05
2023-03-21T11:37:47.995Z,5.47
2023-03-21T11:40:30.046Z,8.00
2023-03-21T11:43:18.151Z,6.43
2023-03-21T11:46:08.175Z,7.72
2023-03-21T11:48:48.980Z,4.15
2023-03-21T11:51:50.646Z,5.43
2023-03-21T11:54:33.965Z,8.98
2023-03-21T11:57:31.428Z,6.95
2023-03-21T12:00:29.453Z,6.95
2023-03-21T12:03:22.334Z,5.40
2023-03-21T12:06:11.342Z,5.57
2023-03-21T12:09:25.712Z,5.18
2023-03-21T12:12:14.544Z,4.93
2023-03-21T12:15:06.454Z,4.80
2023-03-21T12:18:06.618Z,6.53
2023-03-21T12:20:40.578Z,5.32
2023-03-21T12:23:13.720Z,7.28
2023-03-21T12:26:03.456Z,11.52
2023-03-21T12:28:43.322Z,8.10
2023-03-21T12:32:14.810Z,4.47
2023-03-21T12:35:41.908Z,5.00
2023-03-21T12:38:33.881Z,7.22
2023-03-21T12:41:10.499Z,7.60
2023-03-21T12:44:11.333Z,5.05
2023-03-21T12:47:02.755Z,7.95
2023-03-21T12:49:45.786Z,5.60
2023-03-21T12:52:16.595Z,4.97
2023-03-21T12:55:15.165Z,5.25
2023-03-21T12:58:08.261Z,6.70
2023-03-21T13:00:44.729Z,6.00
2023-03-21T13:03:30.641Z,5.80
2023-03-21T13:06:07.489Z,4.88
2023-03-21T13:09:36.777Z,6.50
2023-03-21T13:12:14.155Z,4.85
2023-03-21T13:15:12.535Z,4.75
2023-03-21T13:17:51.599Z,4.93
2023-03-21T13:20:56.017Z,8.38
2023-03-21T13:23:33.704Z,6.82
2023-03-21T13:26:01.067Z,7.57
2023-03-21T13:28:34.429Z,7.50
2023-03-21T13:31:26.321Z,3.58
2023-03-21T13:33:59.889Z,7.85
2023-03-21T13:36:31.854Z,4.85
2023-03-21T13:39:06.144Z,4.57
2023-03-21T13:41:43.597Z,5.25
2023-03-21T13:44:25.867Z,3.92
2023-03-21T13:47:05.038Z,3.55
2023-03-21T13:49:36.862Z,3.42
2023-03-21T13:52:28.219Z,5.13
2023-03-21T13:54:57.447Z,3.63
2023-03-21T13:57:27.225Z,3.70
2023-03-21T14:00:30.681Z,10.88
2023-03-21T14:03:06.381Z,4.10
2023-03-21T14:05:35.404Z,4.90
2023-03-21T14:08:15.776Z,3.70
2023-03-21T14:10:52.586Z,5.22
2023-03-21T14:13:24.714Z,3.75
2023-03-21T14:16:07.680Z,4.05
2023-03-21T14:18:55.259Z,4.60
2023-03-21T14:21:28.294Z,4.35
2023-03-21T14:24:07.248Z,3.75
2023-03-21T14:26:47.569Z,6.25
2023-03-21T14:29:34.391Z,3.28
2023-03-21T14:32:03.590Z,7.53
2023-03-21T14:34:35.162Z,7.05
2023-03-21T14:37:02.276Z,3.90
2023-03-21T14:39:33.710Z,3.60
2023-03-21T14:42:15.068Z,3.85
2023-03-21T14:44:56.915Z,4.43
2023-03-21T14:47:30.056Z,3.75
2023-03-21T14:49:58.356Z,3.10
2023-03-21T14:52:33.432Z,10.25
2023-03-21T14:55:03.171Z,5.43
2023-03-21T14:57:33.441Z,5.20
2023-03-21T15:00:12.670Z,2.88
2023-03-21T15:02:42.004Z,2.83
2023-03-21T15:05:42.689Z,3.22
2023-03-21T15:08:19.756Z,3.25
2023-03-21T15:11:07.138Z,3.78
2023-03-21T15:13:40.247Z,2.38
2023-03-21T15:16:09.759Z,4.50
2023-03-21T15:18:41.396Z,3.42
2023-03-21T15:21:30.351Z,1.90
2023-03-21T15:24:05.518Z,4.03
2023-03-21T15:26:32.734Z,2.70
2023-03-21T15:29:00.804Z,2.92
2023-03-21T15:31:37.076Z,4.93
2023-03-21T15:34:04.960Z,3.70
2023-03-21T15:36:44.115Z,2.55
2023-03-21T15:39:17.165Z,4.13
2023-03-21T15:42:02.140Z,4.57
2023-03-21T15:44:30.187Z,3.05
2023-03-21T15:46:57.958Z,2.22
2023-03-21T15:49:34.227Z,2.28
2023-03-21T15:52:07.840Z,5.57
2023-03-21T15:54:48.077Z,4.47
2023-03-21T15:57:34.133Z,2.67
2023-03-21T16:00:12.020Z,3.97
2023-03-21T16:02:42.579Z,3.53
2023-03-21T16:05:34.022Z,3.85
2023-03-21T16:08:27.413Z,4.28
2023-03-21T16:10:54.514Z,3.35
2023-03-21T16:13:21.565Z,4.85
2023-03-21T16:15:48.643Z,6.05
2023-03-21T16:18:18.280Z,5.07
2023-03-21T16:20:47.166Z,3.15
2023-03-21T16:23:16.134Z,6.10
2023-03-21T16:25:47.146Z,5.10
2023-03-21T16:28:17.768Z,4.97
2023-03-21T16:30:45.546Z,7.78
2023-03-21T16:33:13.933Z,5.35
2023-03-21T16:35:41.399Z,3.78
2023-03-21T16:38:11.950Z,3.65
2023-03-21T16:40:42.374Z,4.57
2023-03-21T16:43:11.466Z,8.48
2023-03-21T16:45:38.680Z,5.13
2023-03-21T16:48:08.889Z,3.35
2023-03-21T16:50:42.657Z,4.82
2023-03-21T16:53:10.298Z,6.10
2023-03-21T16:55:39.039Z,5.78
2023-03-21T16:58:06.841Z,5.65
2023-03-21T17:00:34.215Z,5.65
2023-03-21T17:03:12.331Z,5.72
2023-03-21T17:05:39.441Z,4.20
2023-03-21T17:08:06.646Z,6.65
2023-03-21T17:10:34.014Z,4.45
2023-03-21T17:13:01.062Z,5.97
2023-03-21T17:15:29.299Z,5.43
2023-03-21T17:17:56.438Z,3.80
2023-03-21T17:20:30.861Z,3.92
2023-03-21T17:22:58.139Z,4.28
2023-03-21T17:25:25.469Z,5.45
2023-03-21T17:27:54.118Z,3.92
2023-03-21T17:30:32.174Z,4.55
2023-03-21T17:32:59.921Z,4.85
2023-03-21T17:35:28.990Z,3.15
2023-03-21T17:37:58.491Z,3.60
2023-03-21T17:40:29.945Z,2.75
2023-03-21T17:42:58.602Z,3.88
2023-03-21T17:45:26.013Z,4.10
2023-03-21T17:47:54.901Z,3.92
2023-03-21T17:50:26.396Z,6.35
2023-03-21T17:52:56.476Z,5.50
2023-03-21T17:55:23.930Z,7.45
2023-03-21T17:57:51.227Z,5.45
2023-03-21T18:00:23.293Z,8.30
2023-03-21T18:02:51.779Z,4.50
2023-03-21T18:05:21.703Z,4.00
2023-03-21T18:10:37.397Z,5.60
2023-03-21T18:13:04.694Z,4.00
2023-03-21T18:15:32.100Z,5.15
2023-03-21T18:17:59.584Z,3.08
2023-03-21T18:20:49.797Z,8.68
2023-03-21T18:23:18.866Z,4.60
2023-03-21T18:25:46.022Z,3.53
2023-03-21T18:28:13.838Z,3.05
2023-03-21T18:31:07.065Z,5.28
2023-03-21T18:33:30.193Z,4.22
2023-03-21T18:35:59.346Z,5.97
2023-03-21T18:38:28.077Z,5.40
2023-03-21T18:40:56.325Z,6.85
2023-03-21T18:46:11.804Z,4.82
2023-03-21T18:48:39.330Z,7.63
2023-03-21T18:51:07.167Z,6.38
2023-03-21T18:53:34.212Z,5.20
2023-03-21T18:56:02.002Z,5.85
2023-03-21T18:58:29.463Z,5.68
2023-03-21T19:00:59.714Z,7.35
2023-03-21T19:03:36.712Z,9.90
2023-03-21T19:06:06.477Z,8.88
2023-03-21T19:08:41.796Z,7.80
2023-03-21T19:11:10.101Z,10.40
2023-03-21T19:13:37.201Z,9.63
2023-03-21T19:16:04.546Z,10.27
2023-03-21T19:18:54.101Z,8.50
2023-03-21T19:21:21.561Z,9.13
2023-03-21T19:26:36.432Z,11.30
2023-03-21T19:29:03.904Z,9.88
2023-03-21T19:31:31.431Z,9.30
2023-03-21T19:33:59.227Z,11.15
2023-03-21T19:36:26.689Z,15.25
2023-03-21T19:38:53.948Z,9.10
2023-03-21T19:41:21.188Z,10.60
2023-03-21T19:43:54.541Z,9.55
2023-03-21T19:46:25.172Z,9.20
2023-03-21T19:48:57.165Z,10.80
2023-03-21T19:51:29.287Z,12.15
2023-03-21T19:54:00.150Z,8.77
2023-03-21T19:56:27.967Z,7.95
2023-03-21T19:58:58.582Z,9.95
2023-03-21T20:01:26.353Z,8.30
2023-03-21T20:03:53.707Z,9.45
2023-03-21T20:06:25.019Z,9.38
2023-03-21T20:11:40.954Z,10.18
2023-03-21T20:14:08.722Z,8.07
2023-03-21T20:16:37.098Z,8.23
2023-03-21T20:19:06.236Z,7.60
2023-03-21T20:21:44.504Z,8.85
2023-03-21T20:24:17.052Z,7.68
2023-03-21T20:26:45.892Z,7.32
2023-03-21T20:32:02.641Z,7.32
2023-03-21T20:34:30.620Z,8.57
2023-03-21T20:36:58.632Z,6.22
2023-03-21T20:39:28.022Z,8.90
2023-03-21T20:41:58.922Z,6.20
2023-03-21T20:44:52.268Z,7.30
2023-03-21T20:47:15.440Z,6.70
2023-03-21T20:49:42.774Z,6.00
2023-03-21T20:54:57.533Z,6.15
2023-03-21T20:57:27.168Z,7.07
2023-03-21T20:59:55.363Z,6.40
2023-03-21T21:02:23.801Z,6.65
2023-03-21T21:05:23.591Z,8.25
2023-03-21T21:07:46.044Z,9.18
2023-03-21T21:10:16.859Z,6.65
2023-03-21T21:12:45.343Z,6.18
2023-03-21T21:15:17.027Z,7.20
2023-03-21T21:20:33.836Z,7.45
2023-03-21T21:23:01.252Z,8.15
2023-03-21T21:25:32.109Z,7.47
2023-03-21T21:28:02.025Z,8.15
2023-03-21T21:30:32.808Z,6.60
2023-03-21T21:33:00.953Z,6.38
2023-03-21T21:35:28.749Z,6.47
2023-03-21T21:37:56.015Z,6.90
2023-03-21T21:40:23.559Z,5.07
2023-03-21T21:42:51.398Z,8.52
2023-03-21T21:45:20.270Z,7.70
2023-03-21T21:47:47.657Z,5.70
2023-03-21T21:50:14.998Z,6.57
2023-03-21T21:52:43.945Z,5.57
2023-03-21T21:55:11.294Z,5.50
2023-03-21T21:57:39.840Z,9.63
2023-03-21T22:00:12.993Z,5.45
2023-03-21T22:02:43.026Z,7.53
2023-03-21T22:05:10.771Z,7.65
2023-03-21T22:07:39.466Z,5.53
2023-03-21T22:10:07.182Z,7.65
2023-03-21T22:12:34.853Z,6.57
2023-03-21T22:15:02.990Z,5.35
2023-03-21T22:17:30.105Z,5.65
2023-03-21T22:20:05.760Z,7.65
2023-03-21T22:22:35.318Z,8.55
2023-03-21T22:25:04.950Z,6.78
2023-03-21T22:27:32.385Z,6.10
2023-03-21T22:30:04.907Z,5.90
2023-03-21T22:32:36.934Z,9.65
2023-03-21T22:35:06.158Z,9.48
2023-03-21T22:37:36.576Z,7.22
2023-03-21T22:40:08.105Z,6.88
2023-03-21T22:42:36.619Z,8.57
2023-03-21T22:45:06.183Z,9.93
2023-03-21T22:47:34.086Z,8.40
2023-03-21T22:50:01.489Z,6.95
2023-03-21T22:52:28.464Z,7.97
2023-03-21T22:54:55.532Z,8.52
2023-03-21T22:57:22.715Z,7.87
2023-03-21T22:59:49.928Z,8.75
2023-03-21T23:02:17.103Z,8.10
2023-03-21T23:04:44.728Z,9.05
2023-03-21T23:07:11.812Z,6.82
2023-03-21T23:09:38.996Z,8.93
2023-03-21T23:12:06.356Z,7.88
2023-03-21T23:14:33.351Z,8.27
2023-03-21T23:17:02.642Z,9.38
2023-03-21T23:19:30.633Z,8.70
2023-03-21T23:21:58.015Z,9.65
2023-03-21T23:24:25.636Z,5.32
2023-03-21T23:26:53.253Z,8.15
2023-03-21T23:29:20.363Z,8.53
2023-03-21T23:31:47.449Z,6.38
2023-03-21T23:34:15.012Z,6.23
2023-03-21T23:36:42.340Z,4.82
2023-03-21T23:39:10.446Z,6.70
2023-03-21T23:41:37.675Z,8.05
2023-03-21T23:44:05.378Z,5.78
2023-03-21T23:46:32.744Z,7.28
2023-03-21T23:48:59.878Z,7.10
2023-03-21T23:51:27.019Z,7.78
2023-03-21T23:53:56.892Z,7.50
2023-03-21T23:56:26.083Z,7.15
2023-03-21T23:58:53.756Z,8.07
